Time;durP1;ratioP1;P1;durP2;ratioP2;P2;SDS_P1;SDS_P2;PMS_P1;PMS_P2;Temp;Humidity;BMP_temperature;BMP_pressure;BME280_temperature;BME280_humidity;BME280_pressure;Samples;Min_cycle;Max_cycle;Signal;HPM_P1;HPM_P2
2023/06/13 00:01:35;;;;;;;8.02;7.38;;;;;;;15.66;100.00;63618.69;5118040;28;20215;-74
2023/06/13 00:04:03;;;;;;;6.82;6.13;;;;;;;15.68;100.00;63616.19;5104809;28;20203;-74
2023/06/13 00:06:34;;;;;;;6.43;6.00;;;;;;;15.65;100.00;63620.25;5106573;28;20222;-77
2023/06/13 00:09:02;;;;;;;6.60;6.10;;;;;;;15.66;100.00;63616.66;5107180;28;20202;-75
2023/06/13 00:11:29;;;;;;;6.72;6.13;;;;;;;15.65;100.00;63615.59;5115179;28;20449;-74
2023/06/13 00:13:56;;;;;;;7.22;6.57;;;;;;;15.69;100.00;63619.25;5125769;28;20225;-75
2023/06/13 00:16:25;;;;;;;7.97;6.55;;;;;;;15.71;100.00;63621.84;5125386;28;20219;-75
2023/06/13 00:18:53;;;;;;;7.70;7.00;;;;;;;15.67;100.00;63622.31;5121867;28;20547;-77
2023/06/13 00:21:20;;;;;;;7.22;6.57;;;;;;;15.70;100.00;63620.31;5115627;28;20221;-74
2023/06/13 00:23:49;;;;;;;8.23;6.38;;;;;;;15.73;100.00;63621.38;5122473;28;20199;-76
2023/06/13 00:26:16;;;;;;;9.98;6.88;;;;;;;15.66;100.00;63618.69;5136248;27;20247;-75
2023/06/13 00:28:43;;;;;;;6.97;6.38;;;;;;;15.61;100.00;63613.50;5125630;27;20373;-76
2023/06/13 00:31:10;;;;;;;8.18;7.18;;;;;;;15.61;100.00;63611.47;5126187;28;20218;-74
2023/06/13 00:33:38;;;;;;;7.28;6.45;;;;;;;15.49;100.00;63598.47;5125271;28;20209;-75
2023/06/13 00:36:05;;;;;;;8.00;7.20;;;;;;;15.40;100.00;63587.06;5118663;27;20243;-74
2023/06/13 00:38:33;;;;;;;8.50;7.80;;;;;;;15.31;100.00;63582.81;5124686;28;20191;-77
2023/06/13 00:41:02;;;;;;;7.72;7.00;;;;;;;15.34;100.00;63583.38;5126127;28;20195;-76
2023/06/13 00:43:29;;;;;;;8.40;7.57;;;;;;;15.20;100.00;63571.41;5122553;28;20214;-74
2023/06/13 00:45:56;;;;;;;7.90;7.07;;;;;;;15.27;100.00;63573.53;5114250;28;20244;-73
2023/06/13 00:48:24;;;;;;;9.93;7.70;;;;;;;15.26;100.00;63574.53;5140795;27;20271;-75
2023/06/13 00:50:52;;;;;;;8.77;8.00;;;;;;;15.24;100.00;63575.03;5145205;27;20434;-76
2023/06/13 00:53:21;;;;;;;10.82;7.90;;;;;;;15.23;100.00;63571.41;5135722;27;20222;-76
2023/06/13 00:55:50;;;;;;;8.40;7.60;;;;;;;15.23;100.00;63571.41;5124307;28;20261;-76
2023/06/13 00:58:19;;;;;;;8.60;7.80;;;;;;;15.23;100.00;63571.41;5123293;28;20211;-75
2023/06/13 01:00:49;;;;;;;10.27;7.43;;;;;;;15.11;100.00;63554.34;5125542;28;20195;-75
2023/06/13 01:03:16;;;;;;;7.55;6.88;;;;;;;15.22;100.00;63573.47;5113116;28;20285;-76
2023/06/13 01:05:45;;;;;;;7.70;6.90;;;;;;;15.15;100.00;63560.56;5123022;28;20402;-77
2023/06/13 01:08:16;;;;;;;7.38;6.75;;;;;;;15.15;100.00;63563.63;5124970;28;20384;-74
2023/06/13 01:10:45;;;;;;;7.10;6.55;;;;;;;15.11;100.00;63559.47;5126581;28;20247;-74
2023/06/13 01:13:17;;;;;;;7.05;6.50;;;;;;;15.04;100.00;63554.75;5124498;28;20232;-75
2023/06/13 01:15:54;;;;;;;5.75;5.28;;;;;;;14.99;100.00;63544.97;5119457;28;20248;-75
2023/06/13 01:18:30;;;;;;;9.65;6.28;;;;;;;14.93;100.00;63538.19;5104276;28;20219;-76
2023/06/13 01:21:00;;;;;;;6.43;5.70;;;;;;;14.80;100.00;63524.69;5117849;28;20248;-76
2023/06/13 01:23:38;;;;;;;8.88;6.85;;;;;;;14.73;100.00;63523.09;5110951;28;20200;-74
2023/06/13 01:26:13;;;;;;;9.13;6.25;;;;;;;14.72;100.00;63518.97;5121051;28;20195;-75
2023/06/13 01:28:43;;;;;;;16.52;6.97;;;;;;;14.64;100.00;63513.72;5126529;28;20258;-74
2023/06/13 01:31:14;;;;;;;7.18;6.55;;;;;;;14.69;100.00;63515.84;5122811;28;20206;-76
2023/06/13 01:33:42;;;;;;;10.40;6.20;;;;;;;14.63;100.00;63509.59;5104096;28;20196;-76
2023/06/13 01:36:09;;;;;;;6.05;5.65;;;;;;;14.62;100.00;63514.22;5120363;28;20279;-74
2023/06/13 01:38:37;;;;;;;7.50;6.45;;;;;;;14.61;100.00;63508.06;5123963;28;20195;-74
2023/06/13 01:41:04;;;;;;;9.20;7.57;;;;;;;14.57;100.00;63503.88;5114323;28;20204;-74
2023/06/13 01:43:31;;;;;;;6.95;6.20;;;;;;;14.55;100.00;63499.25;5123997;28;20306;-75
2023/06/13 01:46:05;;;;;;;6.80;6.28;;;;;;;14.51;100.00;63497.66;5110419;28;20207;-76
2023/06/13 01:48:45;;;;;;;8.05;6.80;;;;;;;14.53;100.00;63499.22;5106109;28;20208;-74
2023/06/13 01:51:20;;;;;;;7.53;6.55;;;;;;;14.51;100.00;63497.16;5116939;28;20198;-74
2023/06/13 01:53:53;;;;;;;7.35;6.70;;;;;;;14.55;100.00;63501.81;5124128;28;20183;-76
2023/06/13 01:56:22;;;;;;;8.63;6.47;;;;;;;14.48;100.00;63494.03;5120124;28;20320;-75
2023/06/13 01:58:53;;;;;;;8.50;7.57;;;;;;;14.51;100.00;63494.59;5121433;28;20301;-76
2023/06/13 02:01:21;;;;;;;8.57;6.93;;;;;;;14.47;100.00;63496.06;5125250;28;20195;-75
2023/06/13 02:03:48;;;;;;;9.07;7.03;;;;;;;14.52;100.00;63496.13;5126000;28;20211;-76
2023/06/13 02:06:16;;;;;;;11.45;7.13;;;;;;;14.47;100.00;63492.97;5124914;28;20311;-74
2023/06/13 02:08:43;;;;;;;8.02;7.28;;;;;;;14.48;100.00;63494.03;5126609;28;20240;-76
2023/06/13 02:11:10;;;;;;;7.00;6.40;;;;;;;14.43;100.00;63489.34;5126624;28;20443;-76
2023/06/13 02:13:37;;;;;;;9.65;6.13;;;;;;;14.42;100.00;63490.34;5127517;28;20229;-75
2023/06/13 02:16:04;;;;;;;7.35;6.65;;;;;;;14.42;100.00;63490.88;5126543;28;20231;-75
2023/06/13 02:18:32;;;;;;;6.65;6.05;;;;;;;14.36;100.00;63479.50;5128042;28;20221;-76
2023/06/13 02:20:59;;;;;;;7.00;6.28;;;;;;;14.37;100.00;63493.38;5118033;28;20200;-76
2023/06/13 02:23:26;;;;;;;6.60;5.93;;;;;;;14.31;100.00;63471.25;5141720;27;20202;-74
2023/06/13 02:25:52;;;;;;;6.75;5.97;;;;;;;14.37;100.00;63485.16;5131140;27;20199;-74
2023/06/13 02:28:20;;;;;;;6.13;5.53;;;;;;;14.40;100.00;63486.25;5127582;28;20222;-74
2023/06/13 02:30:46;;;;;;;7.32;6.28;;;;;;;14.29;100.00;63469.69;5120056;28;20278;-74
2023/06/13 02:33:14;;;;;;;6.38;5.78;;;;;;;14.31;100.00;63476.38;5127209;28;20218;-76
2023/06/13 02:35:43;;;;;;;5.32;4.90;;;;;;;14.29;100.00;63474.31;5124275;28;20258;-76
2023/06/13 02:38:10;;;;;;;5.97;5.38;;;;;;;14.26;100.00;63469.13;5127931;28;20527;-76
2023/06/13 02:40:38;;;;;;;5.63;5.25;;;;;;;14.29;100.00;63479.94;5124401;28;20259;-75
2023/06/13 02:43:05;;;;;;;6.22;5.72;;;;;;;14.28;100.00;63473.78;5110137;28;20221;-77
2023/06/13 02:45:32;;;;;;;5.85;5.35;;;;;;;14.32;100.00;63480.50;5128010;28;20199;-76
2023/06/13 02:47:59;;;;;;;5.97;5.57;;;;;;;14.32;100.00;63477.94;5132328;27;20215;-77
2023/06/13 02:50:26;;;;;;;5.95;5.45;;;;;;;14.34;100.00;63477.44;5126134;28;20199;-76
2023/06/13 02:52:55;;;;;;;6.78;6.00;;;;;;;14.40;100.00;63488.28;5120841;28;20253;-74
2023/06/13 02:55:22;;;;;;;11.55;5.88;;;;;;;14.40;100.00;63483.16;5116720;28;20567;-77
2023/06/13 02:57:49;;;;;;;7.10;6.50;;;;;;;14.33;100.00;63476.41;5106134;28;20585;-76
2023/06/13 03:00:20;;;;;;;6.30;5.80;;;;;;;14.40;100.00;63485.72;5106284;28;20504;-76
2023/06/13 03:02:47;;;;;;;6.57;5.97;;;;;;;14.47;100.00;63496.06;5125129;28;20255;-75
2023/06/13 03:05:15;;;;;;;7.93;6.32;;;;;;;14.45;100.00;63494.00;5125901;28;20202;-75
2023/06/13 03:07:46;;;;;;;6.68;5.88;;;;;;;14.51;100.00;63500.22;5125651;28;20215;-75
2023/06/13 03:10:16;;;;;;;6.45;5.85;;;;;;;14.54;100.00;63500.78;5124431;28;20201;-76
2023/06/13 03:12:43;;;;;;;6.55;5.55;;;;;;;14.55;100.00;63498.72;5127321;28;20426;-76
2023/06/13 03:15:11;;;;;;;6.78;6.05;;;;;;;14.57;100.00;63506.44;5123368;28;20290;-78
2023/06/13 03:17:37;;;;;;;6.22;5.57;;;;;;;14.57;100.00;63503.38;5128749;28;20214;-74
2023/06/13 03:20:05;;;;;;;6.07;5.57;;;;;;;14.67;100.00;63511.19;5124600;28;20438;-75
2023/06/13 03:22:32;;;;;;;5.53;5.13;;;;;;;14.68;100.00;63515.31;5125486;28;20243;-75
2023/06/13 03:25:04;;;;;;;6.07;5.57;;;;;;;14.74;100.00;63518.97;5114873;28;20203;-76
2023/06/13 03:27:33;;;;;;;8.15;6.07;;;;;;;14.78;100.00;63527.75;5106267;28;20524;-75
2023/06/13 03:29:59;;;;;;;6.40;5.40;;;;;;;14.80;100.00;63527.25;5123736;28;20206;-75
2023/06/13 03:32:26;;;;;;;8.65;4.68;;;;;;;14.86;100.00;63534.00;5126281;28;20404;-74
2023/06/13 03:34:53;;;;;;;8.50;5.55;;;;;;;14.88;100.00;63535.56;5106162;28;20200;-74
2023/06/13 03:37:20;;;;;;;7.28;5.50;;;;;;;14.71;100.00;63517.91;5104599;28;20223;-76
2023/06/13 03:39:47;;;;;;;12.52;5.32;;;;;;;14.71;100.00;63517.91;5115175;28;20198;-77
2023/06/13 03:42:14;;;;;;;6.50;5.93;;;;;;;14.85;100.00;63537.59;5124720;28;20528;-76
2023/06/13 03:44:46;;;;;;;5.75;5.25;;;;;;;15.01;100.00;63549.09;5125452;28;20199;-75
2023/06/13 03:47:13;;;;;;;6.13;5.20;;;;;;;15.04;100.00;63552.72;5132397;27;20228;-74
2023/06/13 03:49:40;;;;;;;6.38;5.78;;;;;;;15.15;100.00;63557.97;5128612;27;20332;-74
2023/06/13 03:52:08;;;;;;;6.82;5.40;;;;;;;15.31;100.00;63579.72;5113855;28;20284;-76
2023/06/13 03:54:35;;;;;;;6.88;5.60;;;;;;;15.41;100.00;63587.59;5123835;27;20203;-75
2023/06/13 03:57:02;;;;;;;6.30;5.70;;;;;;;15.50;100.00;63602.59;5124020;28;20450;-76
2023/06/13 03:59:30;;;;;;;6.13;5.55;;;;;;;15.64;100.00;63617.16;5118369;28;20194;-74
2023/06/13 04:01:58;;;;;;;7.07;6.47;;;;;;;15.72;100.00;63622.38;5132827;28;20256;-76
2023/06/13 04:04:28;;;;;;;7.85;7.10;;;;;;;15.79;100.00;63630.16;5124141;28;20225;-76
2023/06/13 04:07:05;;;;;;;7.20;6.53;;;;;;;15.87;100.00;63637.97;5127863;28;20362;-77
2023/06/13 04:09:32;;;;;;;6.80;6.30;;;;;;;15.89;100.00;63640.06;5126693;28;20201;-76
2023/06/13 04:11:59;;;;;;;8.30;7.43;;;;;;;15.91;100.00;63640.06;5123675;28;20260;-75
2023/06/13 04:14:29;;;;;;;7.72;7.13;;;;;;;15.97;100.00;63654.03;5122741;28;20199;-76
2023/06/13 04:16:59;;;;;;;9.15;8.23;;;;;;;16.07;100.00;63656.19;5124237;28;20272;-77
2023/06/13 04:19:26;;;;;;;8.05;7.05;;;;;;;16.08;100.00;63657.25;5127394;28;20484;-77
2023/06/13 04:21:54;;;;;;;9.52;8.57;;;;;;;16.18;100.00;63667.66;5123840;28;20761;-76
2023/06/13 04:24:22;;;;;;;9.77;8.90;;;;;;;16.37;100.00;63689.44;5122010;28;20758;-77
2023/06/13 04:26:50;;;;;;;10.65;8.35;;;;;;;16.45;100.00;63695.72;5120574;28;20254;-77
2023/06/13 04:29:18;;;;;;;9.02;8.18;;;;;;;16.33;100.00;63685.28;5124621;28;20323;-75
2023/06/13 04:31:46;;;;;;;10.60;9.50;;;;;;;16.23;100.00;63677.47;5121604;28;20253;-74
2023/06/13 04:34:14;;;;;;;12.63;10.13;;;;;;;16.26;100.00;63675.97;5121933;28;20262;-74
2023/06/13 04:36:41;;;;;;;11.95;10.73;;;;;;;16.04;100.00;63655.66;5125673;28;20234;-73
2023/06/13 04:39:09;;;;;;;17.15;10.88;;;;;;;16.14;100.00;63669.13;5123246;28;20237;-75
2023/06/13 04:41:37;;;;;;;13.50;11.15;;;;;;;16.40;100.00;63695.66;5123323;28;20515;-75
2023/06/13 04:44:05;;;;;;;12.95;11.10;;;;;;;16.53;100.00;63706.13;5119487;28;20202;-74
2023/06/13 04:46:33;;;;;;;10.93;9.82;;;;;;;16.59;100.00;63710.31;5119852;28;20326;-75
2023/06/13 04:49:00;;;;;;;16.52;10.48;;;;;;;16.55;100.00;63711.28;5123412;28;20239;-75
2023/06/13 04:51:30;;;;;;;11.10;9.38;;;;;;;16.39;100.00;63686.41;5120739;28;20420;-74
2023/06/13 04:53:58;;;;;;;11.77;10.52;;;;;;;16.36;100.00;63691.50;5117766;28;20686;-75
2023/06/13 04:56:27;;;;;;;11.70;10.50;;;;;;;16.30;100.00;63682.69;5124013;28;20423;-76
2023/06/13 04:58:55;;;;;;;12.20;10.90;;;;;;;16.44;100.00;63696.72;5124495;28;20197;-74
2023/06/13 05:01:26;;;;;;;12.38;10.80;;;;;;;16.51;100.00;63706.59;5124431;28;20222;-75
2023/06/13 05:03:53;;;;;;;11.93;10.73;;;;;;;16.74;100.00;63725.41;5124201;28;20207;-77
2023/06/13 05:06:21;;;;;;;14.93;11.90;;;;;;;16.82;100.00;63733.72;5121626;28;20215;-76
2023/06/13 05:08:51;;;;;;;12.30;10.73;;;;;;;16.86;100.00;63746.13;5126193;28;20194;-77
2023/06/13 05:11:18;;;;;;;12.48;11.15;;;;;;;17.08;100.00;63761.28;5118695;28;20241;-75
2023/06/13 05:13:45;;;;;;;15.93;11.55;;;;;;;17.30;100.00;63783.69;5105201;28;20191;-75
2023/06/13 05:16:12;;;;;;;13.23;11.18;;;;;;;17.45;100.00;63806.50;5116939;28;20275;-77
2023/06/13 05:18:40;;;;;;;15.98;12.60;;;;;;;17.50;100.00;63809.66;5125858;28;20187;-77
2023/06/13 05:21:08;;;;;;;13.55;10.50;;;;;;;17.43;100.00;63804.41;5111831;28;20205;-75
2023/06/13 05:23:38;;;;;;;13.80;11.32;;;;;;;17.56;100.00;63817.97;5117054;28;20279;-75
2023/06/13 05:26:06;;;;;;;22.98;12.70;;;;;;;17.65;100.00;63822.19;5127078;28;20243;-76
2023/06/13 05:28:33;;;;;;;23.48;11.63;;;;;;;17.71;100.00;63828.44;5124273;28;20500;-75
2023/06/13 05:31:01;;;;;;;13.65;11.48;;;;;;;17.82;100.00;63843.00;5104273;28;20195;-76
2023/06/13 05:33:27;;;;;;;11.60;10.32;;;;;;;17.77;100.00;63835.22;5125079;28;20217;-76
2023/06/13 05:35:55;;;;;;;13.55;10.30;;;;;;;18.09;100.00;63870.59;5126362;28;20227;-77
2023/06/13 05:38:23;;;;;;;10.82;9.55;;;;;;;18.11;100.00;63873.22;5120537;28;20253;-76
2023/06/13 05:40:50;;;;;;;9.27;8.35;;;;;;;18.32;100.00;63892.50;5127404;28;20194;-77
2023/06/13 05:43:19;;;;;;;8.50;7.70;;;;;;;18.61;100.00;63924.81;5127978;28;20222;-75
2023/06/13 05:45:47;;;;;;;10.20;8.90;;;;;;;18.64;100.00;63922.25;5128728;28;20511;-76
2023/06/13 05:48:14;;;;;;;9.95;8.32;;;;;;;18.69;100.00;63927.97;5129525;27;20568;-77
2023/06/13 05:50:41;;;;;;;10.43;9.43;;;;;;;18.84;100.00;63945.69;5130064;28;20378;-76
2023/06/13 05:53:08;;;;;;;9.60;8.70;;;;;;;19.34;100.00;64003.00;5117067;28;20551;-76
2023/06/13 05:55:35;;;;;;;10.90;8.27;;;;;;;19.60;100.00;64022.34;5109366;28;20195;-75
2023/06/13 05:58:02;;;;;;;8.80;8.10;;;;;;;19.43;100.00;64007.22;5127259;27;20226;-77
2023/06/13 06:00:30;;;;;;;8.73;7.82;;;;;;;19.34;100.00;63997.81;5122548;27;20191;-77
2023/06/13 06:02:58;;;;;;;9.20;8.40;;;;;;;19.64;100.00;64033.75;5112102;28;20219;-77
2023/06/13 06:05:25;;;;;;;10.68;8.52;;;;;;;19.91;100.00;64054.69;5108365;28;20436;-75
2023/06/13 06:07:52;;;;;;;8.13;7.43;;;;;;;20.24;100.00;64091.72;5121131;28;20219;-77
2023/06/13 06:10:19;;;;;;;8.00;7.30;;;;;;;20.14;100.00;64078.16;5122818;28;20234;-75
2023/06/13 06:12:46;;;;;;;8.98;8.07;;;;;;;19.83;100.00;64051.00;5109106;28;20215;-74
2023/06/13 06:15:13;;;;;;;9.30;8.43;;;;;;;19.76;100.00;64041.63;5128400;28;20190;-76
2023/06/13 06:17:41;;;;;;;11.27;7.35;;;;;;;20.10;100.00;64081.75;5127610;28;20252;-76
2023/06/13 06:20:08;;;;;;;9.20;7.43;;;;;;;19.77;100.00;64045.25;5127413;28;20199;-77
2023/06/13 06:22:36;;;;;;;8.00;7.10;;;;;;;19.58;100.00;64024.91;5127101;28;20223;-77
2023/06/13 06:25:03;;;;;;;10.30;7.53;;;;;;;19.75;100.00;64038.00;5121957;28;20187;-77
2023/06/13 06:27:30;;;;;;;6.72;6.13;;;;;;;19.88;100.00;64058.81;5108081;28;20227;-75
2023/06/13 06:29:57;;;;;;;7.32;6.55;;;;;;;20.06;100.00;64072.41;5109341;28;20240;-76
2023/06/13 06:32:24;;;;;;;8.63;5.75;;;;;;;20.07;100.00;64076.03;5129487;28;20384;-75
2023/06/13 06:34:54;;;;;;;8.57;7.70;;;;;;;19.94;100.00;64062.47;5116562;28;20245;-75
2023/06/13 06:37:21;;;;;;;8.85;6.45;;;;;;;19.77;100.00;64044.72;5106698;28;20227;-76
2023/06/13 06:39:48;;;;;;;8.50;7.78;;;;;;;19.91;100.00;64062.44;5117447;28;20387;-76
2023/06/13 06:42:15;;;;;;;8.50;6.93;;;;;;;19.50;100.00;64017.59;5129124;28;20402;-76
2023/06/13 06:44:42;;;;;;;11.38;8.25;;;;;;;19.84;100.00;64049.44;5126634;28;20199;-75
2023/06/13 06:47:09;;;;;;;6.53;5.93;;;;;;;19.96;100.00;64061.97;5134204;27;20545;-76
2023/06/13 06:49:36;;;;;;;6.35;5.75;;;;;;;20.38;100.00;64108.41;5138529;27;20211;-77
2023/06/13 06:52:05;;;;;;;6.50;5.80;;;;;;;20.51;100.00;64121.97;5123288;28;20222;-76
2023/06/13 06:54:32;;;;;;;6.15;5.68;;;;;;;20.46;100.00;64114.16;5113502;28;20499;-77
2023/06/13 06:56:59;;;;;;;5.30;4.78;;;;;;;20.51;100.00;64124.56;5128684;28;20237;-76
2023/06/13 06:59:26;;;;;;;5.40;5.00;;;;;;;20.88;100.00;64160.59;5126492;28;20245;-76
2023/06/13 07:01:53;;;;;;;5.30;4.97;;;;;;;21.05;100.00;64172.66;5127366;27;20216;-77
2023/06/13 07:04:20;;;;;;;6.82;5.25;;;;;;;21.23;100.00;64194.03;5127900;27;20250;-77
2023/06/13 07:06:47;;;;;;;6.35;5.75;;;;;;;21.36;100.00;64207.63;5110155;28;20547;-78
2023/06/13 07:09:15;;;;;;;7.28;6.68;;;;;;;21.02;100.00;64172.13;5109069;28;20203;-77
2023/06/13 07:11:42;;;;;;;6.68;6.03;;;;;;;20.93;100.00;64165.81;5111736;28;20443;-77
2023/06/13 07:14:09;;;;;;;5.82;5.32;;;;;;;21.05;100.00;64175.25;5119941;27;20264;-77
2023/06/13 07:16:36;;;;;;;5.10;4.80;;;;;;;20.98;100.00;64167.94;5110289;28;20410;-76
2023/06/13 07:19:03;;;;;;;5.65;5.25;;;;;;;20.80;100.00;64152.25;5142471;27;20222;-77
2023/06/13 07:21:30;;;;;;;6.35;5.88;;;;;;;21.31;100.00;64208.09;5126011;28;20428;-75
2023/06/13 07:23:57;;;;;;;7.47;5.63;;;;;;;21.16;100.00;64187.25;5123413;28;20195;-77
2023/06/13 07:26:26;;;;;;;5.60;5.20;;;;;;;21.49;100.00;64224.31;5107963;28;20218;-76
2023/06/13 07:28:53;;;;;;;5.82;5.45;;;;;;;21.64;99.19;64239.47;5110511;28;20213;-78
2023/06/13 07:31:20;;;;;;;8.02;5.88;;;;;;;21.71;96.88;64244.19;5120586;28;20643;-78
2023/06/13 07:33:47;;;;;;;6.32;5.72;;;;;;;21.73;95.61;64246.28;5120264;28;20207;-78
2023/06/13 07:36:16;;;;;;;6.43;5.00;;;;;;;21.68;98.55;64246.75;5128711;27;20194;-76
2023/06/13 07:38:43;;;;;;;6.03;5.53;;;;;;;22.02;97.91;64281.78;5119395;28;20203;-77
2023/06/13 07:41:11;;;;;;;6.22;5.72;;;;;;;22.22;91.76;64300.09;5116949;27;20207;-76
2023/06/13 07:43:41;;;;;;;5.82;5.32;;;;;;;22.11;92.95;64286.00;5121455;28;20203;-78
2023/06/13 07:46:08;;;;;;;5.03;4.20;;;;;;;22.10;92.34;64284.44;5128778;28;20511;-77
2023/06/13 07:48:34;;;;;;;5.35;4.95;;;;;;;22.14;95.14;64291.72;5125958;28;20209;-78
2023/06/13 07:51:01;;;;;;;6.78;5.22;;;;;;;22.56;89.30;64335.66;5122577;28;20198;-77
2023/06/13 07:53:28;;;;;;;5.25;4.78;;;;;;;22.44;88.18;64323.09;5125667;28;20233;-76
2023/06/13 07:55:55;;;;;;;5.05;4.63;;;;;;;22.63;87.60;64337.78;5120955;28;20190;-76
2023/06/13 07:58:22;;;;;;;4.85;4.60;;;;;;;22.42;86.39;64315.81;5128662;27;20234;-77
2023/06/13 08:00:51;;;;;;;5.07;4.68;;;;;;;22.19;89.96;64299.03;5132390;28;20246;-77
2023/06/13 08:03:18;;;;;;;5.15;4.75;;;;;;;22.07;91.62;64279.22;5127280;28;20218;-76
2023/06/13 08:05:44;;;;;;;4.65;4.40;;;;;;;21.93;92.54;64269.28;5126795;28;20232;-77
2023/06/13 08:08:11;;;;;;;4.93;4.63;;;;;;;21.84;91.81;64262.44;5116055;28;20235;-75
2023/06/13 08:10:38;;;;;;;6.03;5.30;;;;;;;21.41;94.01;64215.44;5122364;28;20237;-76
2023/06/13 08:13:05;;;;;;;6.95;6.32;;;;;;;21.15;97.27;64185.69;5116939;28;20211;-79
2023/06/13 08:15:32;;;;;;;8.65;6.15;;;;;;;21.04;98.73;64171.63;5113109;28;20339;-76
2023/06/13 08:18:00;;;;;;;9.98;7.35;;;;;;;20.86;99.90;64158.00;5122165;28;20241;-76
2023/06/13 08:20:27;;;;;;;10.40;7.93;;;;;;;20.70;100.00;64139.22;5119544;28;20206;-76
2023/06/13 08:22:55;;;;;;;7.88;7.07;;;;;;;20.52;100.00;64126.13;5116811;28;20226;-77
2023/06/13 08:25:22;;;;;;;9.77;7.18;;;;;;;20.33;100.00;64106.28;5110971;28;20503;-76
2023/06/13 08:27:49;;;;;;;8.05;7.25;;;;;;;20.22;100.00;64084.47;5113538;27;20207;-79
2023/06/13 08:30:16;;;;;;;9.07;8.25;;;;;;;19.86;100.00;64052.06;5125604;27;20209;-78
2023/06/13 08:32:46;;;;;;;11.02;8.57;;;;;;;19.70;100.00;64037.44;5118299;28;20539;-76
2023/06/13 08:35:14;;;;;;;11.35;8.52;;;;;;;19.82;100.00;64047.88;5122153;27;20199;-77
2023/06/13 08:37:41;;;;;;;15.60;8.32;;;;;;;20.06;100.00;64067.22;5112800;27;20222;-77
2023/06/13 08:40:10;;;;;;;9.82;8.25;;;;;;;20.26;100.00;64093.31;5114861;28;20194;-77
2023/06/13 08:42:37;;;;;;;9.35;8.18;;;;;;;20.44;100.00;64109.50;5121287;28;20219;-77
2023/06/13 08:45:05;;;;;;;9.82;8.82;;;;;;;20.46;100.00;64116.75;5114869;27;20205;-76
2023/06/13 08:47:33;;;;;;;9.35;8.48;;;;;;;20.52;100.00;64126.13;5113533;27;20218;-77
2023/06/13 08:50:00;;;;;;;9.52;7.78;;;;;;;20.57;100.00;64128.75;5115249;27;20203;-75
2023/06/13 08:52:32;;;;;;;9.18;8.23;;;;;;;20.04;100.00;64076.00;5119310;27;20225;-77
2023/06/13 08:55:00;;;;;;;10.02;8.98;;;;;;;20.17;100.00;64084.41;5113363;28;20191;-78
2023/06/13 08:57:31;;;;;;;9.02;8.23;;;;;;;20.57;100.00;64128.25;5115627;27;20234;-77
2023/06/13 08:59:58;;;;;;;12.65;8.60;;;;;;;20.80;99.43;64151.72;5115007;27;20222;-77
2023/06/13 09:02:26;;;;;;;9.32;8.35;;;;;;;20.89;98.55;64158.53;5119162;28;20225;-77
2023/06/13 09:04:53;;;;;;;11.30;9.80;;;;;;;20.83;100.00;64154.84;5115494;28;20439;-78
2023/06/13 09:07:21;;;;;;;13.75;8.82;;;;;;;20.85;98.39;64157.47;5118201;28;20256;-76
2023/06/13 09:09:51;;;;;;;12.35;10.93;;;;;;;20.22;100.00;64094.28;5117740;28;20190;-77
2023/06/13 09:12:20;;;;;;;14.10;10.43;;;;;;;19.73;100.00;64037.97;5115589;28;20215;-76
2023/06/13 09:14:47;;;;;;;16.20;10.85;;;;;;;20.00;100.00;64066.16;5116954;28;20203;-77
2023/06/13 09:17:14;;;;;;;12.15;10.32;;;;;;;20.16;100.00;64085.44;5116841;27;20504;-77
2023/06/13 09:19:41;;;;;;;14.02;11.20;;;;;;;19.83;100.00;64048.41;5116142;28;20195;-76
2023/06/13 09:22:08;;;;;;;13.55;10.70;;;;;;;19.61;100.00;64028.03;5113027;28;20227;-77
2023/06/13 09:24:37;;;;;;;9.60;8.60;;;;;;;19.45;100.00;64009.81;5120090;28;20201;-76
2023/06/13 09:27:06;;;;;;;11.02;9.38;;;;;;;19.38;100.00;64002.50;5113822;28;20208;-77
2023/06/13 09:29:34;;;;;;;8.73;7.93;;;;;;;19.31;100.00;63997.78;5114723;28;20191;-76
2023/06/13 09:32:03;;;;;;;9.95;8.95;;;;;;;19.37;100.00;64001.47;5111390;28;20229;-78
2023/06/13 09:34:30;;;;;;;12.15;10.20;;;;;;;19.84;100.00;64052.56;5112726;28;20203;-80
2023/06/13 09:36:58;;;;;;;11.52;10.43;;;;;;;19.95;100.00;64058.34;5115936;28;20240;-75
2023/06/13 09:39:27;;;;;;;11.80;10.70;;;;;;;20.32;100.00;64097.50;5119726;28;20199;-76
2023/06/13 09:41:55;;;;;;;13.30;10.32;;;;;;;20.51;100.00;64122.50;5122096;28;20846;-77
2023/06/13 09:44:25;;;;;;;12.15;10.50;;;;;;;20.76;100.00;64145.47;5114935;28;20195;-75
2023/06/13 09:46:53;;;;;;;14.20;10.88;;;;;;;20.57;100.00;64125.66;5113472;28;20237;-79
2023/06/13 09:49:21;;;;;;;12.63;10.27;;;;;;;20.67;100.00;64138.69;5121779;28;20214;-78
2023/06/13 09:51:48;;;;;;;15.60;10.48;;;;;;;20.60;100.00;64131.38;5112417;28;20264;-77
2023/06/13 09:54:15;;;;;;;13.02;10.68;;;;;;;20.25;100.00;64094.84;5109900;28;20202;-79
2023/06/13 09:56:43;;;;;;;11.88;10.68;;;;;;;20.16;100.00;64088.03;5114729;28;20407;-77
2023/06/13 09:59:16;;;;;;;14.23;10.73;;;;;;;19.99;100.00;64065.09;5115224;28;20199;-76
2023/06/13 10:01:47;;;;;;;11.63;10.43;;;;;;;20.06;100.00;64072.94;5115619;28;20215;-75
2023/06/13 10:04:14;;;;;;;17.13;11.18;;;;;;;19.74;100.00;64039.03;5113732;28;20202;-76
2023/06/13 10:06:41;;;;;;;14.05;10.40;;;;;;;19.84;100.00;64052.03;5109127;28;20247;-77
2023/06/13 10:09:09;;;;;;;13.75;11.05;;;;;;;20.10;100.00;64079.69;5112102;28;20199;-78
2023/06/13 10:11:41;;;;;;;12.57;10.60;;;;;;;20.32;100.00;64097.50;5113955;28;20685;-77
2023/06/13 10:14:10;;;;;;;12.30;11.02;;;;;;;20.41;100.00;64108.94;5116313;28;20211;-77
2023/06/13 10:16:41;;;;;;;11.30;9.88;;;;;;;20.56;100.00;64124.59;5113211;28;20250;-77
2023/06/13 10:19:16;;;;;;;11.05;7.90;;;;;;;20.47;100.00;64115.72;5117824;28;20214;-78
2023/06/13 10:21:44;;;;;;;8.05;7.30;;;;;;;20.51;100.00;64124.56;5115410;28;20210;-77
2023/06/13 10:24:13;;;;;;;7.93;6.85;;;;;;;20.54;100.00;64125.63;5113329;27;20248;-78
2023/06/13 10:26:42;;;;;;;10.07;7.72;;;;;;;20.60;100.00;64126.19;5114279;27;20221;-76
2023/06/13 10:29:45;;;;;;;10.50;7.38;;;;;;;20.46;100.00;64116.75;5121612;27;20226;-78
2023/06/13 10:32:38;;;;;;;9.38;8.15;;;;;;;20.72;100.00;64143.38;5099648;28;20221;-76
2023/06/13 10:35:44;;;;;;;9.93;8.55;;;;;;;21.06;100.00;64173.69;5131783;27;20199;-77
2023/06/13 10:38:48;;;;;;;11.80;10.15;;;;;;;21.72;100.00;64242.66;5074795;28;20256;-78
2023/06/13 10:41:48;;;;;;;9.95;8.27;;;;;;;22.12;100.00;64289.13;5118278;28;20198;-78
2023/06/13 10:44:23;;;;;;;11.35;9.18;;;;;;;22.07;100.00;64281.31;5122499;27;20190;-79
2023/06/13 10:46:50;;;;;;;12.60;10.60;;;;;;;22.40;100.00;64315.81;5122786;28;20292;-78
2023/06/13 10:49:17;;;;;;;18.25;11.73;;;;;;;22.36;100.00;64316.81;5123917;27;20221;-77
2023/06/13 10:51:46;;;;;;;17.88;12.20;;;;;;;22.65;100.00;64347.13;5113462;28;20222;-76
2023/06/13 10:54:14;;;;;;;13.57;10.95;;;;;;;22.71;99.08;64348.22;5114168;28;20195;-79
2023/06/13 10:56:44;;;;;;;12.85;10.80;;;;;;;22.92;100.00;64369.66;5112730;28;20239;-76
2023/06/13 10:59:12;;;;;;;11.82;10.23;;;;;;;22.96;99.82;64374.38;5111471;28;20244;-77
2023/06/13 11:01:41;;;;;;;12.50;9.15;;;;;;;23.45;98.49;64422.50;5115391;28;21449;-78
2023/06/13 11:04:12;;;;;;;10.52;7.38;;;;;;;23.39;91.74;64418.81;5119349;28;20210;-75
2023/06/13 11:06:41;;;;;;;9.90;7.15;;;;;;;23.95;90.77;64477.94;5120594;27;20222;-78
2023/06/13 11:09:20;;;;;;;6.50;5.90;;;;;;;24.13;82.46;64491.06;5123732;28;20210;-78
2023/06/13 11:11:49;;;;;;;5.80;5.40;;;;;;;24.65;72.79;64544.97;5123708;27;20218;-77
2023/06/13 11:14:17;;;;;;;5.60;5.20;;;;;;;24.48;71.08;64530.31;5120096;28;20194;-77
2023/06/13 11:16:45;;;;;;;5.88;5.38;;;;;;;24.65;72.36;64553.34;5118476;27;20245;-77
2023/06/13 11:19:17;;;;;;;5.88;5.32;;;;;;;24.81;64.47;64572.19;5117460;28;20286;-78
2023/06/13 11:21:47;;;;;;;5.40;5.00;;;;;;;24.27;64.34;64510.94;5126299;27;20225;-77
2023/06/13 11:24:16;;;;;;;5.20;4.90;;;;;;;24.25;66.19;64508.31;5116454;28;20403;-78
2023/06/13 11:26:45;;;;;;;5.07;4.68;;;;;;;24.60;65.80;64547.56;5118801;27;20234;-77
2023/06/13 11:29:13;;;;;;;5.22;4.85;;;;;;;24.92;66.68;64579.00;5114893;27;20194;-77